createdAt,value
2023-03-29T00:01:59.047Z,23.87
2023-03-29T00:05:59.276Z,23.87
2023-03-29T00:09:59.400Z,23.87
2023-03-29T00:13:59.636Z,23.87
2023-03-29T00:18:00.347Z,23.87
2023-03-29T00:22:00.029Z,23.87
2023-03-29T00:26:00.310Z,23.87
2023-03-29T00:30:00.471Z,23.87
2023-03-29T00:34:00.418Z,23.87
2023-03-29T00:38:00.785Z,23.88
2023-03-29T00:42:00.789Z,23.88
2023-03-29T00:46:00.443Z,23.87
2023-03-29T00:50:00.324Z,23.86
2023-03-29T00:54:00.322Z,23.87
2023-03-29T00:58:00.292Z,23.86
2023-03-29T01:02:00.342Z,23.87
2023-03-29T01:06:00.221Z,23.85
2023-03-29T01:10:00.300Z,23.86
2023-03-29T01:14:00.287Z,23.85
2023-03-29T01:18:00.825Z,23.86
2023-03-29T01:22:00.793Z,23.84
2023-03-29T01:26:00.939Z,23.84
2023-03-29T01:30:01.334Z,23.84
2023-03-29T01:34:01.328Z,23.84
2023-03-29T01:38:01.319Z,23.84
2023-03-29T01:42:01.355Z,23.85
2023-03-29T01:46:01.027Z,23.84
2023-03-29T01:50:01.007Z,23.85
2023-03-29T01:54:01.326Z,23.84
2023-03-29T01:58:00.919Z,23.85
2023-03-29T02:02:00.883Z,23.84
2023-03-29T02:06:01.342Z,23.85
2023-03-29T02:10:00.785Z,23.84
2023-03-29T02:14:00.821Z,23.84
2023-03-29T02:18:00.870Z,23.84
2023-03-29T02:22:00.699Z,23.84
2023-03-29T02:26:00.838Z,23.84
2023-03-29T02:30:00.820Z,23.84
2023-03-29T02:34:00.848Z,23.84
2023-03-29T02:38:00.805Z,23.84
2023-03-29T02:42:00.532Z,23.84
2023-03-29T02:46:00.837Z,23.84
2023-03-29T02:50:00.851Z,23.84
2023-03-29T02:54:00.855Z,23.84
2023-03-29T02:58:00.847Z,23.84
2023-03-29T03:02:01.089Z,23.84
2023-03-29T03:06:01.342Z,23.84
2023-03-29T03:10:00.937Z,23.84
2023-03-29T03:14:01.372Z,23.85
2023-03-29T03:18:00.943Z,23.85
2023-03-29T03:22:00.859Z,23.86
2023-03-29T03:26:00.847Z,23.86
2023-03-29T03:30:00.765Z,23.87
2023-03-29T03:34:00.853Z,23.87
2023-03-29T03:38:00.697Z,23.86
2023-03-29T03:42:00.911Z,23.87
2023-03-29T03:46:01.424Z,23.86
2023-03-29T03:50:01.336Z,23.86
2023-03-29T03:54:01.876Z,23.86
2023-03-29T03:58:01.744Z,23.86
2023-03-29T04:02:02.476Z,23.85
2023-03-29T04:06:02.388Z,23.86
2023-03-29T04:10:02.871Z,23.85
2023-03-29T04:14:02.601Z,23.85
2023-03-29T04:18:02.925Z,23.86
2023-03-29T04:22:03.372Z,23.86
2023-03-29T04:26:03.357Z,23.86
2023-03-29T04:30:02.986Z,23.87
2023-03-29T04:34:03.414Z,23.87
2023-03-29T04:38:02.883Z,23.88
2023-03-29T04:42:02.876Z,23.89
2023-03-29T04:46:02.987Z,23.90
2023-03-29T04:50:02.897Z,23.90
2023-03-29T04:54:02.768Z,23.90
2023-03-29T04:58:02.881Z,23.90
2023-03-29T05:02:02.881Z,23.89
2023-03-29T05:06:03.013Z,23.89
2023-03-29T05:10:03.389Z,23.90
2023-03-29T05:14:09.474Z,23.89
2023-03-29T05:18:03.461Z,23.88
2023-03-29T05:22:03.408Z,23.88
2023-03-29T05:26:03.463Z,23.90
2023-03-29T05:30:03.412Z,23.91
2023-03-29T05:34:03.156Z,23.91
2023-03-29T05:38:03.429Z,23.89
2023-03-29T05:42:03.916Z,23.80
2023-03-29T05:46:03.449Z,23.83
2023-03-29T05:50:03.002Z,23.90
2023-03-29T05:54:03.418Z,23.90
2023-03-29T05:58:03.419Z,23.90
2023-03-29T06:02:03.464Z,23.92
2023-03-29T06:06:03.928Z,23.93
2023-03-29T06:10:03.631Z,23.94
2023-03-29T06:14:03.928Z,23.92
2023-03-29T06:18:04.497Z,23.92
2023-03-29T06:22:04.436Z,23.90
2023-03-29T06:26:04.926Z,23.89
2023-03-29T06:30:04.698Z,23.89
2023-03-29T06:34:04.932Z,23.90
2023-03-29T06:38:05.421Z,23.92
2023-03-29T06:42:16.894Z,23.93
2023-03-29T06:46:06.461Z,23.92
2023-03-29T06:50:05.215Z,23.94
2023-03-29T06:54:05.449Z,23.94
2023-03-29T06:58:05.948Z,23.93
2023-03-29T07:02:05.959Z,22.82
2023-03-29T07:06:05.925Z,23.06
2023-03-29T07:10:06.442Z,23.27
2023-03-29T07:14:06.463Z,23.38
2023-03-29T07:18:06.494Z,23.46
2023-03-29T07:22:06.447Z,23.43
2023-03-29T07:26:06.248Z,23.05
2023-03-29T07:30:06.450Z,22.82
2023-03-29T07:34:06.508Z,22.65
2023-03-29T07:38:06.963Z,22.51
2023-03-29T07:42:06.975Z,22.37
2023-03-29T07:46:06.931Z,21.60
2023-03-29T07:50:06.967Z,21.02
2023-03-29T07:54:07.450Z,21.48
2023-03-29T07:58:07.450Z,22.19
2023-03-29T08:02:07.230Z,22.73
2023-03-29T08:06:07.489Z,23.12
2023-03-29T08:10:07.500Z,23.41
2023-03-29T08:14:07.983Z,23.61
2023-03-29T08:18:08.112Z,23.76
2023-03-29T08:22:07.680Z,23.90
2023-03-29T08:26:07.949Z,24.02
2023-03-29T08:30:08.460Z,24.09
2023-03-29T08:34:08.462Z,24.19
2023-03-29T08:38:08.469Z,24.30
2023-03-29T08:42:08.521Z,24.34
2023-03-29T08:46:08.987Z,23.08
2023-03-29T08:50:09.013Z,23.21
2023-03-29T08:54:09.511Z,22.62
2023-03-29T08:58:09.462Z,22.38
2023-03-29T09:02:09.179Z,19.94
2023-03-29T09:06:09.466Z,20.81
2023-03-29T09:10:09.498Z,21.82
2023-03-29T09:14:09.488Z,22.56
2023-03-29T09:18:09.714Z,23.06
2023-03-29T09:22:10.001Z,23.44
2023-03-29T09:26:09.977Z,23.71
2023-03-29T09:30:10.001Z,23.92
2023-03-29T09:34:10.492Z,24.09
2023-03-29T09:38:10.229Z,24.22
2023-03-29T09:42:10.468Z,24.32
2023-03-29T09:46:10.513Z,24.45
2023-03-29T09:50:22.978Z,24.46
2023-03-29T09:54:11.499Z,24.38
2023-03-29T09:58:10.567Z,24.29
2023-03-29T10:02:10.780Z,24.21
2023-03-29T10:06:10.995Z,24.14
2023-03-29T10:10:11.217Z,24.10
2023-03-29T10:14:11.368Z,24.06
2023-03-29T10:18:11.382Z,24.02
2023-03-29T10:22:11.304Z,23.99
2023-03-29T10:26:11.268Z,23.98
2023-03-29T10:30:11.235Z,23.96
2023-03-29T10:34:11.922Z,23.94
2023-03-29T10:38:11.164Z,23.93
2023-03-29T10:42:11.532Z,23.92
2023-03-29T10:46:11.585Z,23.91
2023-03-29T10:50:11.510Z,23.92
2023-03-29T10:54:10.994Z,23.91
2023-03-29T10:58:11.492Z,23.90
2023-03-29T11:02:11.271Z,23.89
2023-03-29T11:06:11.492Z,23.90
2023-03-29T11:10:12.046Z,23.91
2023-03-29T11:14:11.758Z,23.92
2023-03-29T11:18:12.027Z,23.92
2023-03-29T11:22:12.523Z,23.93
2023-03-29T11:26:12.505Z,23.93
2023-03-29T11:30:12.091Z,23.92
2023-03-29T11:34:12.049Z,23.91
2023-03-29T11:38:12.194Z,23.91
2023-03-29T11:42:11.985Z,23.90
2023-03-29T11:46:12.005Z,23.88
2023-03-29T11:50:11.893Z,23.88
2023-03-29T11:54:11.856Z,23.88
2023-03-29T11:58:11.814Z,23.88
2023-03-29T12:02:11.963Z,23.87
2023-03-29T12:06:12.080Z,23.87
2023-03-29T12:10:12.115Z,23.87
2023-03-29T12:14:12.532Z,23.86
2023-03-29T12:18:12.538Z,23.86
2023-03-29T12:22:12.509Z,23.86
2023-03-29T12:26:13.051Z,23.86
2023-03-29T12:30:12.819Z,23.84
2023-03-29T12:34:12.907Z,23.85
2023-03-29T12:38:13.059Z,23.86
2023-03-29T12:42:13.131Z,23.86
2023-03-29T12:46:13.226Z,23.87
2023-03-29T12:50:13.304Z,23.87
2023-03-29T12:54:13.464Z,23.87
2023-03-29T12:58:13.498Z,23.83
2023-03-29T13:02:20.694Z,23.83
2023-03-29T13:06:13.535Z,23.82
2023-03-29T13:10:13.539Z,23.83
2023-03-29T13:14:13.494Z,23.84
2023-03-29T13:18:13.609Z,23.84
2023-03-29T13:22:13.409Z,23.83
2023-03-29T13:26:13.360Z,23.82
2023-03-29T13:30:13.322Z,23.83
2023-03-29T13:34:13.300Z,23.83
2023-03-29T13:38:13.349Z,23.82
2023-03-29T13:42:13.614Z,23.81
2023-03-29T13:46:13.178Z,23.79
2023-03-29T13:50:13.157Z,23.80
2023-03-29T13:54:13.176Z,23.79
2023-03-29T13:58:13.254Z,23.80
2023-03-29T14:02:13.410Z,23.79
2023-03-29T14:06:13.417Z,23.80
2023-03-29T14:10:13.478Z,23.79
2023-03-29T14:14:13.582Z,23.78
2023-03-29T14:18:13.640Z,23.79
2023-03-29T14:22:13.744Z,23.80
2023-03-29T14:26:14.101Z,23.80
2023-03-29T14:30:14.088Z,23.80
2023-03-29T14:34:14.125Z,23.80
2023-03-29T14:38:14.609Z,23.80
2023-03-29T14:42:14.237Z,23.79
2023-03-29T14:46:14.451Z,23.80
2023-03-29T14:50:14.626Z,23.79
2023-03-29T14:54:15.097Z,23.78
2023-03-29T14:58:15.113Z,23.79
2023-03-29T15:02:15.004Z,23.67
2023-03-29T15:06:14.957Z,23.69
2023-03-29T15:10:15.122Z,23.72
2023-03-29T15:14:15.022Z,23.74
2023-03-29T15:18:15.649Z,23.76
2023-03-29T15:22:15.210Z,23.77
2023-03-29T15:26:15.282Z,23.76
2023-03-29T15:30:15.626Z,23.76
2023-03-29T15:34:15.626Z,23.76
2023-03-29T15:38:15.605Z,23.76
2023-03-29T15:42:15.565Z,23.76
2023-03-29T15:46:15.655Z,23.75
2023-03-29T15:50:16.157Z,23.76
2023-03-29T15:54:16.148Z,23.76
2023-03-29T15:58:16.258Z,23.77
2023-03-29T16:02:16.088Z,23.77
2023-03-29T16:06:15.938Z,23.77
2023-03-29T16:10:16.125Z,23.78
2023-03-29T16:14:16.077Z,23.77
2023-03-29T16:18:16.161Z,23.77
2023-03-29T16:22:16.261Z,23.76
2023-03-29T16:26:16.645Z,23.76
2023-03-29T16:30:16.320Z,23.76
2023-03-29T16:34:16.676Z,23.75
2023-03-29T16:38:16.389Z,23.76
2023-03-29T16:42:16.420Z,23.76
2023-03-29T16:46:16.652Z,23.75
2023-03-29T16:50:16.581Z,23.76
2023-03-29T16:54:16.669Z,23.75
2023-03-29T16:58:16.612Z,23.75
2023-03-29T17:02:16.634Z,23.74
2023-03-29T17:06:16.722Z,23.74
2023-03-29T17:10:17.154Z,23.74
2023-03-29T17:14:16.823Z,23.74
2023-03-29T17:18:16.874Z,23.75
2023-03-29T17:22:17.144Z,23.75
2023-03-29T17:26:17.015Z,23.74
2023-03-29T17:30:17.135Z,23.75
2023-03-29T17:34:17.066Z,23.75
2023-03-29T17:38:17.200Z,23.75
2023-03-29T17:42:17.673Z,23.75
2023-03-29T17:46:17.301Z,23.75
2023-03-29T17:50:17.661Z,23.75
2023-03-29T17:54:17.409Z,23.75
2023-03-29T17:58:17.692Z,23.74
2023-03-29T18:02:17.561Z,23.74
2023-03-29T18:06:17.650Z,23.74
2023-03-29T18:10:17.773Z,23.74
2023-03-29T18:14:17.928Z,23.74
2023-03-29T18:18:18.717Z,23.74
2023-03-29T18:22:18.669Z,23.74
2023-03-29T18:26:18.657Z,23.74
2023-03-29T18:30:19.179Z,23.74
2023-03-29T18:34:18.925Z,23.74
2023-03-29T18:38:19.212Z,23.74
2023-03-29T18:42:19.178Z,23.74
2023-03-29T18:46:19.230Z,23.75
2023-03-29T18:50:19.189Z,23.74
2023-03-29T18:54:19.179Z,23.74
2023-03-29T18:58:19.189Z,23.73
2023-03-29T19:02:19.307Z,23.73
2023-03-29T19:06:19.712Z,23.73
2023-03-29T19:10:19.280Z,23.73
2023-03-29T19:14:19.351Z,23.72
2023-03-29T19:18:19.700Z,23.73
2023-03-29T19:22:20.204Z,23.73
2023-03-29T19:26:19.737Z,23.73
2023-03-29T19:30:19.562Z,23.74
2023-03-29T19:34:19.612Z,23.73
2023-03-29T19:38:19.692Z,23.73
2023-03-29T19:42:19.682Z,23.73
2023-03-29T19:46:20.206Z,23.73
2023-03-29T19:50:19.732Z,23.74
2023-03-29T19:54:20.201Z,23.73
2023-03-29T19:58:20.202Z,23.73
2023-03-29T20:02:19.914Z,23.74
2023-03-29T20:06:20.218Z,23.74
2023-03-29T20:10:20.073Z,23.74
2023-03-29T20:14:20.144Z,23.74
2023-03-29T20:18:20.213Z,23.74
2023-03-29T20:22:20.217Z,23.74
2023-03-29T20:26:20.735Z,23.73
2023-03-29T20:30:20.294Z,23.73
2023-03-29T20:34:20.384Z,23.73
2023-03-29T20:38:20.705Z,23.73
2023-03-29T20:42:20.438Z,23.73
2023-03-29T20:46:20.775Z,23.72
2023-03-29T20:50:20.514Z,23.73
2023-03-29T20:54:20.724Z,23.72
2023-03-29T20:58:20.760Z,23.72
2023-03-29T21:02:20.782Z,23.72
2023-03-29T21:06:20.750Z,23.72
2023-03-29T21:10:20.755Z,23.71
2023-03-29T21:14:21.265Z,23.72
2023-03-29T21:18:21.229Z,23.71
2023-03-29T21:22:20.883Z,23.72
2023-03-29T21:26:20.938Z,23.71
2023-03-29T21:30:21.257Z,23.72
2023-03-29T21:34:21.320Z,23.72
2023-03-29T21:38:21.262Z,23.72
2023-03-29T21:42:21.261Z,23.71
2023-03-29T21:46:21.216Z,23.72
2023-03-29T21:50:21.761Z,23.72
2023-03-29T21:54:21.408Z,23.72
2023-03-29T21:58:21.760Z,23.72
2023-03-29T22:02:21.644Z,23.72
2023-03-29T22:06:21.651Z,23.72
2023-03-29T22:10:21.735Z,23.72
2023-03-29T22:14:22.304Z,23.72
2023-03-29T22:18:21.813Z,23.71
2023-03-29T22:22:22.259Z,23.71
2023-03-29T22:26:21.905Z,23.72
2023-03-29T22:30:22.250Z,23.71
2023-03-29T22:34:22.252Z,23.72
2023-03-29T22:38:22.064Z,23.72
2023-03-29T22:42:22.252Z,23.72
2023-03-29T22:46:22.227Z,23.72
2023-03-29T22:50:22.285Z,23.72
2023-03-29T22:54:22.265Z,23.72
2023-03-29T22:58:22.790Z,23.72
2023-03-29T23:02:22.382Z,23.71
2023-03-29T23:06:22.360Z,23.71
2023-03-29T23:10:22.761Z,23.72
2023-03-29T23:14:22.788Z,23.71
2023-03-29T23:18:22.792Z,23.71
2023-03-29T23:22:22.597Z,23.71
2023-03-29T23:26:22.766Z,23.71
2023-03-29T23:30:22.765Z,23.71
2023-03-29T23:34:22.789Z,23.71
2023-03-29T23:38:22.805Z,23.71
2023-03-29T23:42:22.803Z,23.71
2023-03-29T23:46:23.300Z,23.71
2023-03-29T23:50:23.271Z,23.72
2023-03-29T23:54:22.977Z,23.72
